Time;durP1;ratioP1;P1;durP2;ratioP2;P2;SDS_P1;SDS_P2;PMS_P1;PMS_P2;Temp;Humidity;BMP_temperature;BMP_pressure;BME280_temperature;BME280_humidity;BME280_pressure;Samples;Min_cycle;Max_cycle;Signal;HPM_P1;HPM_P2
2022/07/31 00:00:43;;;;;;;12.80;4.70;;;;;;;21.71;47.91;99397.52;25130;1313;3026340;-68
2022/07/31 00:03:12;;;;;;;16.10;6.00;;;;;;;21.68;47.70;99396.03;25171;1316;3052169;-68
2022/07/31 00:05:42;;;;;;;17.50;6.80;;;;;;;21.67;48.15;99393.29;25121;1316;3026823;-66
2022/07/31 00:08:12;;;;;;;11.50;5.60;;;;;;;21.65;48.12;99386.95;25111;1316;3026157;-69
2022/07/31 00:10:41;;;;;;;18.90;5.70;;;;;;;21.64;48.15;99389.39;25141;1315;3028142;-67
2022/07/31 00:13:10;;;;;;;20.80;5.80;;;;;;;21.63;47.96;99391.98;25067;1315;3054197;-71
2022/07/31 00:15:39;;;;;;;13.40;5.30;;;;;;;21.62;47.87;99388.28;25150;1315;3026816;-69
2022/07/31 00:18:08;;;;;;;14.10;5.40;;;;;;;21.60;47.96;99386.17;25124;1316;3054999;-66
2022/07/31 00:20:37;;;;;;;11.80;5.50;;;;;;;21.55;48.04;99382.27;25176;1316;3026530;-68
2022/07/31 00:23:06;;;;;;;12.10;5.50;;;;;;;21.55;48.11;99378.36;25180;1316;3055092;-67
2022/07/31 00:25:35;;;;;;;11.60;5.00;;;;;;;21.55;48.13;99374.85;25116;1316;3027051;-68
2022/07/31 00:28:05;;;;;;;14.60;5.80;;;;;;;21.52;48.13;99369.77;25161;1315;3026539;-66
2022/07/31 00:30:34;;;;;;;11.70;5.60;;;;;;;21.48;48.38;99371.23;25098;1318;3054126;-67
2022/07/31 00:33:04;;;;;;;14.70;5.60;;;;;;;21.45;48.50;99368.86;25111;1315;3026953;-69
2022/07/31 00:35:35;;;;;;;18.70;5.30;;;;;;;21.45;48.34;99366.42;25126;1314;3048434;-67
2022/07/31 00:38:04;;;;;;;11.80;5.00;;;;;;;21.40;48.76;99368.00;25115;1318;3027063;-68
2022/07/31 00:40:33;;;;;;;14.60;4.90;;;;;;;21.39;48.61;99366.05;25082;1316;3070891;-70
2022/07/31 00:43:02;;;;;;;16.10;4.80;;;;;;;21.37;48.75;99364.11;25091;1316;3028032;-68
2022/07/31 00:45:31;;;;;;;12.10;5.80;;;;;;;21.32;48.88;99361.43;25099;1315;3053038;-69
2022/07/31 00:48:02;;;;;;;17.00;5.10;;;;;;;21.27;49.00;99360.90;25143;1316;3026522;-70
2022/07/31 00:50:31;;;;;;;12.60;4.90;;;;;;;21.23;49.04;99358.08;25110;1316;3054666;-67
2022/07/31 00:53:00;;;;;;;16.30;4.80;;;;;;;21.21;48.94;99357.45;25143;1316;3026774;-69
2022/07/31 00:55:30;;;;;;;14.50;4.90;;;;;;;21.17;49.25;99356.04;25012;1316;3049045;-68
2022/07/31 00:57:59;;;;;;;12.20;4.60;;;;;;;21.16;49.18;99350.66;25085;1316;3026889;-67
2022/07/31 01:00:28;;;;;;;9.50;4.30;;;;;;;21.15;49.27;99353.98;25060;1316;3026722;-68
2022/07/31 01:02:57;;;;;;;15.80;5.20;;;;;;;21.11;49.32;99350.82;25125;1316;3051963;-67
2022/07/31 01:05:25;;;;;;;13.30;4.80;;;;;;;21.09;49.54;99351.52;25142;1315;3028955;-69
2022/07/31 01:07:55;;;;;;;13.30;4.30;;;;;;;21.06;49.56;99351.30;25107;1316;3056539;-67
2022/07/31 01:11:16;;;;;;;10.90;4.40;;;;;;;21.05;49.55;99355.41;25119;1316;3026918;-68
2022/07/31 01:14:02;;;;;;;16.20;4.40;;;;;;;21.00;49.88;99354.27;24888;1318;3055957;-68
2022/07/31 01:16:34;;;;;;;11.80;4.30;;;;;;;20.96;49.83;99353.24;25061;1315;3055335;-67
2022/07/31 01:19:27;;;;;;;17.00;4.30;;;;;;;20.94;49.81;99353.09;25055;1315;3026174;-69
2022/07/31 01:22:15;;;;;;;13.80;4.50;;;;;;;20.92;50.06;99351.71;25117;1316;3055363;-68
2022/07/31 01:24:57;;;;;;;10.50;4.10;;;;;;;20.89;50.07;99344.61;25093;1315;3053297;-66
2022/07/31 01:27:58;;;;;;;19.10;5.00;;;;;;;20.89;49.96;99344.59;25107;1314;3071427;-68
2022/07/31 01:30:35;;;;;;;8.30;4.80;;;;;;;20.87;49.81;99342.65;25059;1315;3049144;-69
2022/07/31 01:33:08;;;;;;;10.20;4.80;;;;;;;20.84;50.12;99343.34;25151;1316;3052383;-69
2022/07/31 01:35:50;;;;;;;16.00;4.30;;;;;;;20.82;50.21;99340.73;25197;1315;3026492;-67
2022/07/31 01:38:22;;;;;;;11.30;5.10;;;;;;;20.80;50.42;99336.66;25084;1316;3056340;-69
2022/07/31 01:40:57;;;;;;;16.50;4.80;;;;;;;20.78;50.13;99333.48;25105;1315;3026619;-69
2022/07/31 01:43:28;;;;;;;12.40;5.10;;;;;;;20.76;50.28;99335.64;25163;1316;3053535;-70
2022/07/31 01:45:58;;;;;;;12.20;4.70;;;;;;;20.75;50.07;99332.70;25079;1316;3027471;-70
2022/07/31 01:48:28;;;;;;;11.00;4.50;;;;;;;20.74;50.17;99331.70;25067;1316;3027545;-69
2022/07/31 01:50:59;;;;;;;12.00;4.30;;;;;;;20.72;50.26;99335.66;25102;1316;3026741;-67
2022/07/31 01:53:30;;;;;;;9.20;4.80;;;;;;;20.70;50.07;99333.36;25148;1316;3028421;-67
2022/07/31 01:56:00;;;;;;;8.00;4.00;;;;;;;20.68;50.35;99337.17;25142;1315;3027337;-67
2022/07/31 01:58:32;;;;;;;10.60;4.00;;;;;;;20.66;50.30;99335.76;25134;1316;3026531;-69
2022/07/31 02:01:06;;;;;;;11.50;4.10;;;;;;;20.63;50.36;99337.10;25123;1316;3051892;-68
2022/07/31 02:03:35;;;;;;;11.50;4.20;;;;;;;20.61;50.30;99338.20;25120;1315;3026122;-69
2022/07/31 02:06:04;;;;;;;8.90;3.90;;;;;;;20.57;50.40;99334.36;25157;1316;3026882;-70
2022/07/31 02:08:34;;;;;;;12.30;4.20;;;;;;;20.57;50.56;99329.17;25157;1316;3049136;-68
2022/07/31 02:11:03;;;;;;;11.60;4.10;;;;;;;20.60;50.46;99333.57;25105;1316;3028691;-69
2022/07/31 02:13:34;;;;;;;14.00;4.80;;;;;;;20.59;50.44;99330.20;25103;1316;3057838;-70
2022/07/31 02:16:06;;;;;;;12.20;4.20;;;;;;;20.59;50.29;99332.89;25154;1316;3027015;-70
2022/07/31 02:18:36;;;;;;;12.10;4.30;;;;;;;20.57;50.60;99330.88;25083;1315;3026451;-70
2022/07/31 02:21:24;;;;;;;11.80;4.10;;;;;;;20.56;50.59;99328.95;25126;1316;3053526;-69
2022/07/31 02:23:53;;;;;;;14.90;4.40;;;;;;;20.52;50.88;99326.79;25120;1315;3026078;-68
2022/07/31 02:26:23;;;;;;;11.40;4.60;;;;;;;20.52;50.66;99320.84;25126;1316;3026430;-70
2022/07/31 02:28:52;;;;;;;12.20;4.10;;;;;;;20.51;50.84;99319.19;25155;1316;3052772;-67
2022/07/31 02:31:22;;;;;;;10.00;3.80;;;;;;;20.45;51.11;99320.66;25110;1315;3026517;-68
2022/07/31 02:33:50;;;;;;;5.80;3.60;;;;;;;20.46;50.56;99316.83;25155;1316;3054964;-67
2022/07/31 02:36:20;;;;;;;13.80;4.00;;;;;;;20.49;50.78;99318.73;25084;1316;3026639;-68
2022/07/31 02:38:49;;;;;;;10.80;4.10;;;;;;;20.50;50.60;99319.81;25118;1316;3051444;-68
2022/07/31 02:41:18;;;;;;;10.80;4.40;;;;;;;20.51;50.44;99322.75;25125;1318;3028053;-70
2022/07/31 02:43:48;;;;;;;13.10;4.30;;;;;;;20.51;50.26;99324.15;25098;1316;3026442;-69
2022/07/31 02:46:22;;;;;;;13.00;4.20;;;;;;;20.54;50.53;99326.13;24976;1316;3052374;-69
2022/07/31 02:48:52;;;;;;;13.40;4.40;;;;;;;20.56;50.40;99326.44;25146;1316;3028035;-69
2022/07/31 02:51:22;;;;;;;13.80;5.00;;;;;;;20.58;50.36;99324.02;25137;1316;3027825;-69
2022/07/31 02:53:52;;;;;;;9.70;3.80;;;;;;;20.55;50.59;99325.01;25025;1316;3030660;-69
2022/07/31 02:56:21;;;;;;;8.80;4.20;;;;;;;20.55;50.57;99328.05;25080;1318;3055065;-70
2022/07/31 02:58:50;;;;;;;11.40;4.30;;;;;;;20.56;50.43;99326.14;25147;1316;3026906;-69
2022/07/31 03:01:23;;;;;;;8.10;4.40;;;;;;;20.58;50.42;99321.88;25166;1316;3026076;-69
2022/07/31 03:03:52;;;;;;;15.70;4.60;;;;;;;20.58;50.24;99321.67;25136;1315;3028447;-67
2022/07/31 03:06:21;;;;;;;13.50;4.40;;;;;;;20.60;50.18;99323.73;25083;1315;3052357;-67
2022/07/31 03:08:53;;;;;;;8.50;3.90;;;;;;;20.61;50.26;99325.23;25108;1317;3025969;-69
2022/07/31 03:11:31;;;;;;;13.20;4.00;;;;;;;20.64;50.14;99321.94;25102;1315;3055616;-68
2022/07/31 03:14:00;;;;;;;8.60;4.50;;;;;;;20.67;50.13;99321.65;25113;1316;3028318;-70
2022/07/31 03:16:30;;;;;;;13.70;3.80;;;;;;;20.66;50.20;99325.80;25082;1316;3049697;-70
2022/07/31 03:18:59;;;;;;;19.60;4.50;;;;;;;20.67;50.25;99324.67;24994;1315;3026470;-69
2022/07/31 03:21:29;;;;;;;9.80;4.50;;;;;;;20.69;50.31;99330.50;25154;1316;3027010;-68
2022/07/31 03:23:58;;;;;;;12.60;4.20;;;;;;;20.73;50.08;99332.93;25108;1319;3026934;-70
2022/07/31 03:26:27;;;;;;;15.00;4.30;;;;;;;20.75;50.01;99327.77;25046;1316;3026901;-69
2022/07/31 03:28:58;;;;;;;8.50;3.90;;;;;;;20.75;49.94;99322.79;25130;1316;3026080;-69
2022/07/31 03:31:28;;;;;;;8.00;4.40;;;;;;;20.77;49.98;99323.44;25134;1316;3070291;-69
2022/07/31 03:33:57;;;;;;;18.70;5.00;;;;;;;20.79;49.96;99318.09;25076;1316;3029943;-71
2022/07/31 03:36:26;;;;;;;12.70;4.40;;;;;;;20.81;49.93;99316.14;25135;1315;3026587;-69
2022/07/31 03:38:55;;;;;;;9.70;4.10;;;;;;;20.85;49.81;99320.48;25122;1315;3069376;-71
2022/07/31 03:41:33;;;;;;;10.50;4.30;;;;;;;20.87;49.85;99321.73;25124;1315;3051321;-70
2022/07/31 03:44:03;;;;;;;11.60;4.40;;;;;;;20.91;49.86;99320.70;25166;1316;3026204;-68
2022/07/31 03:46:32;;;;;;;12.20;4.60;;;;;;;20.91;49.99;99319.02;25099;1316;3072594;-70
2022/07/31 03:49:01;;;;;;;13.60;5.00;;;;;;;20.93;50.06;99321.42;25116;1315;3028566;-70
2022/07/31 03:51:30;;;;;;;10.70;4.40;;;;;;;20.91;50.14;99317.56;25082;1318;3053667;-69
2022/07/31 03:54:00;;;;;;;12.30;5.10;;;;;;;20.94;49.98;99318.40;25079;1316;3026495;-69
2022/07/31 03:56:44;;;;;;;19.40;4.60;;;;;;;20.99;49.93;99321.29;25121;1316;3051309;-69
2022/07/31 03:59:14;;;;;;;12.50;4.10;;;;;;;21.09;49.41;99315.59;25150;1316;3028954;-68
2022/07/31 04:01:43;;;;;;;9.80;4.70;;;;;;;21.15;49.28;99317.85;25110;1316;3026582;-68
2022/07/31 04:04:17;;;;;;;;;;;;;;;21.19;49.37;99316.15;25099;1315;3058803;-70
2022/07/31 04:07:01;;;;;;;;;;;;;;;21.13;49.66;99317.27;25143;1316;3052633;-70
2022/07/31 04:09:30;;;;;;;14.30;4.80;;;;;;;21.07;50.08;99318.86;25120;1316;3029419;-67
2022/07/31 04:11:59;;;;;;;13.30;4.50;;;;;;;21.17;49.68;99320.13;25094;1316;3056093;-68
2022/07/31 04:14:28;;;;;;;11.60;4.80;;;;;;;21.21;49.47;99317.31;25123;1316;3026839;-69
2022/07/31 04:16:57;;;;;;;7.00;4.20;;;;;;;21.28;49.20;99316.08;25131;1318;3053180;-70
2022/07/31 04:19:31;;;;;;;10.60;4.60;;;;;;;21.30;49.20;99314.98;25158;1316;3026331;-68
2022/07/31 04:22:00;;;;;;;12.80;4.60;;;;;;;21.38;48.84;99316.09;25115;1316;3028025;-68
2022/07/31 04:24:30;;;;;;;14.30;5.00;;;;;;;21.41;49.05;99318.73;25116;1316;3026453;-68
2022/07/31 04:27:08;;;;;;;10.90;4.10;;;;;;;21.44;48.90;99311.59;25128;1314;3056218;-70
2022/07/31 04:29:44;;;;;;;9.90;4.60;;;;;;;21.51;48.39;99312.67;25096;1316;3052856;-68
2022/07/31 04:32:13;;;;;;;14.40;4.00;;;;;;;21.57;48.37;99312.73;25121;1319;3026810;-70
2022/07/31 04:34:51;;;;;;;13.50;4.30;;;;;;;21.66;48.13;99309.89;25189;1316;3053795;-69
2022/07/31 04:37:20;;;;;;;11.50;4.00;;;;;;;21.74;47.87;99310.34;25139;1316;3028787;-68
2022/07/31 04:39:49;;;;;;;9.10;4.10;;;;;;;21.80;47.61;99304.52;25131;1315;3026682;-70
2022/07/31 04:42:18;;;;;;;11.80;4.00;;;;;;;21.83;47.88;99304.29;25146;1316;3053876;-70
2022/07/31 04:44:48;;;;;;;11.20;3.70;;;;;;;21.86;47.83;99307.33;25116;1315;3027007;-67
2022/07/31 04:47:18;;;;;;;9.70;3.40;;;;;;;21.91;47.64;99308.48;25127;1315;3054720;-69
2022/07/31 04:49:51;;;;;;;11.10;3.90;;;;;;;21.93;47.84;99304.94;25125;1316;3054089;-69
2022/07/31 04:52:20;;;;;;;13.10;3.40;;;;;;;21.96;47.69;99309.20;25132;1316;3028546;-70
2022/07/31 04:54:51;;;;;;;9.20;3.50;;;;;;;22.04;47.43;99302.97;25126;1316;3052429;-69
2022/07/31 04:57:20;;;;;;;7.40;3.50;;;;;;;22.11;47.51;99304.38;25118;1316;3029177;-69
2022/07/31 04:59:49;;;;;;;6.30;3.30;;;;;;;22.16;47.14;99306.85;25127;1315;3051444;-68
2022/07/31 05:02:18;;;;;;;6.20;3.60;;;;;;;22.22;47.25;99307.23;25162;1315;3026379;-70
2022/07/31 05:04:47;;;;;;;11.90;3.00;;;;;;;22.26;47.05;99307.17;25086;1316;3058365;-69
2022/07/31 05:07:17;;;;;;;10.40;3.50;;;;;;;22.33;46.81;99303.14;25122;1316;3026684;-71
2022/07/31 05:09:46;;;;;;;12.20;3.50;;;;;;;22.34;46.68;99298.06;25172;1316;3026519;-70
2022/07/31 05:12:16;;;;;;;9.80;3.90;;;;;;;22.41;46.51;99299.91;25129;1316;3027636;-69
2022/07/31 05:14:46;;;;;;;30.60;3.90;;;;;;;22.51;46.13;99295.34;25107;1316;3027680;-70
2022/07/31 05:17:16;;;;;;;10.30;3.50;;;;;;;22.57;45.97;99293.29;25103;1315;3026783;-68
2022/07/31 05:19:55;;;;;;;8.70;3.80;;;;;;;22.59;45.68;99289.86;25135;1316;3052268;-69
2022/07/31 05:22:41;;;;;;;9.20;3.50;;;;;;;22.61;46.03;99287.27;25098;1316;3055442;-72
2022/07/31 05:25:19;;;;;;;12.00;3.60;;;;;;;22.68;45.91;99285.30;25117;1316;3056892;-70
2022/07/31 05:27:48;;;;;;;8.90;3.50;;;;;;;22.78;45.31;99289.70;25164;1316;3026662;-70
2022/07/31 05:30:18;;;;;;;8.50;3.60;;;;;;;22.84;45.37;99284.55;25084;1314;3054241;-70
2022/07/31 05:32:49;;;;;;;7.70;3.50;;;;;;;22.87;45.47;99284.92;25151;1316;3026521;-68
2022/07/31 05:35:18;;;;;;;6.70;3.40;;;;;;;22.93;45.18;99278.69;25088;1316;3029912;-69
2022/07/31 05:37:47;;;;;;;10.20;3.60;;;;;;;23.04;45.04;99283.90;25133;1316;3028675;-68
2022/07/31 05:40:16;;;;;;;7.90;3.10;;;;;;;23.12;44.93;99285.07;25122;1316;3056064;-68
2022/07/31 05:43:04;;;;;;;15.00;3.20;;;;;;;23.19;44.58;99284.34;25170;1316;3049940;-69
2022/07/31 05:45:48;;;;;;;14.80;3.70;;;;;;;23.24;44.48;99285.12;25154;1316;3056218;-68
2022/07/31 05:48:17;;;;;;;18.70;3.90;;;;;;;23.28;44.55;99290.59;25171;1316;3026754;-70
2022/07/31 05:50:47;;;;;;;6.20;3.30;;;;;;;23.32;44.74;99288.52;25118;1316;3050355;-68
2022/07/31 05:53:17;;;;;;;9.50;3.40;;;;;;;23.39;44.81;99287.64;25158;1316;3026508;-69
2022/07/31 05:56:09;;;;;;;11.80;3.80;;;;;;;23.48;44.84;99289.02;25158;1316;3054283;-68
2022/07/31 05:58:50;;;;;;;5.30;3.00;;;;;;;23.55;44.19;99285.59;25133;1316;3070185;-68
2022/07/31 06:01:19;;;;;;;9.40;3.20;;;;;;;23.68;44.12;99287.11;25139;1316;3029534;-66
2022/07/31 06:03:49;;;;;;;10.00;3.00;;;;;;;23.80;43.88;99286.42;25145;1315;3054008;-68
2022/07/31 06:06:23;;;;;;;11.20;3.60;;;;;;;23.88;43.65;99286.79;25139;1316;3067989;-70
2022/07/31 06:08:52;;;;;;;8.10;3.20;;;;;;;23.89;44.14;99284.52;25141;1316;3028898;-69
2022/07/31 06:11:22;;;;;;;8.90;3.60;;;;;;;23.97;43.98;99282.46;25126;1316;3027668;-69
2022/07/31 06:13:51;;;;;;;9.10;3.20;;;;;;;24.02;43.71;99281.77;25138;1316;3026823;-71
2022/07/31 06:16:23;;;;;;;8.40;3.00;;;;;;;24.07;43.87;99280.91;25132;1316;3028994;-69
2022/07/31 06:18:52;;;;;;;9.20;3.20;;;;;;;24.15;43.93;99278.91;25112;1316;3026766;-70
2022/07/31 06:21:21;;;;;;;18.30;4.10;;;;;;;24.18;44.36;99281.95;25085;1317;3056277;-71
2022/07/31 06:23:50;;;;;;;9.90;3.00;;;;;;;24.23;43.95;99276.53;25116;1316;3026624;-71
2022/07/31 06:26:31;;;;;;;12.50;4.00;;;;;;;24.32;43.84;99279.70;25104;1316;3054827;-71
2022/07/31 06:29:00;;;;;;;10.50;3.70;;;;;;;24.40;43.61;99278.02;25106;1314;3028357;-70
2022/07/31 06:31:29;;;;;;;18.20;3.80;;;;;;;24.51;42.69;99276.71;25110;1316;3050119;-71
2022/07/31 06:34:00;;;;;;;7.80;2.90;;;;;;;24.57;42.47;99274.10;25131;1316;3028921;-70
2022/07/31 06:36:36;;;;;;;12.70;3.40;;;;;;;24.66;42.37;99275.46;25151;1316;3055590;-67
2022/07/31 06:39:10;;;;;;;6.50;3.60;;;;;;;24.73;42.15;99270.77;25179;1316;3055506;-68
2022/07/31 06:41:48;;;;;;;9.30;3.50;;;;;;;24.82;42.15;99267.95;25139;1316;3026022;-69
2022/07/31 06:44:33;;;;;;;11.60;3.10;;;;;;;24.88;42.19;99270.41;25155;1316;3052393;-68
2022/07/31 06:47:24;;;;;;;7.40;3.10;;;;;;;24.92;41.61;99269.51;25145;1316;3059421;-71
2022/07/31 06:50:14;;;;;;;7.40;2.50;;;;;;;24.99;41.23;99268.00;25128;1316;3052827;-70
2022/07/31 06:52:50;;;;;;;10.30;3.00;;;;;;;25.07;40.91;99262.98;25146;1316;3055425;-69
2022/07/31 06:55:19;;;;;;;7.90;2.80;;;;;;;25.10;40.79;99260.95;25107;1316;3028360;-69
2022/07/31 06:57:48;;;;;;;5.80;2.30;;;;;;;25.20;40.84;99256.40;25116;1316;3051411;-70
2022/07/31 07:00:19;;;;;;;5.00;2.60;;;;;;;25.24;40.66;99258.55;25194;1316;3028071;-69
2022/07/31 07:02:48;;;;;;;8.00;2.80;;;;;;;25.29;40.35;99254.84;25114;1316;3027084;-69
2022/07/31 07:05:17;;;;;;;14.80;2.90;;;;;;;25.36;40.45;99252.61;25112;1316;3027809;-68
2022/07/31 07:07:48;;;;;;;8.10;2.60;;;;;;;25.48;40.19;99246.29;25119;1316;3029239;-69
2022/07/31 07:10:17;;;;;;;11.30;2.50;;;;;;;25.53;39.41;99246.20;25156;1315;3026922;-69
2022/07/31 07:13:00;;;;;;;;;;;;;;;25.61;39.64;99240.09;25185;1316;3069015;-68
2022/07/31 07:15:33;;;;;;;6.10;2.30;;;;;;;25.58;39.41;99241.52;25098;1316;3026516;-69
2022/07/31 07:18:02;;;;;;;8.00;2.30;;;;;;;25.66;39.00;99239.13;25168;1316;3026384;-70
2022/07/31 07:20:37;;;;;;;8.10;2.20;;;;;;;25.74;39.14;99232.55;25135;1316;3070893;-70
2022/07/31 07:23:06;;;;;;;10.00;2.10;;;;;;;25.83;38.78;99233.52;25112;1315;3026406;-69
2022/07/31 07:25:54;;;;;;;8.20;1.90;;;;;;;25.95;38.68;99230.52;25139;1316;3052793;-68
2022/07/31 07:28:23;;;;;;;3.30;1.80;;;;;;;26.01;38.09;99228.34;25106;1316;3026400;-69
2022/07/31 07:30:52;;;;;;;9.00;2.30;;;;;;;26.08;38.12;99226.27;25144;1316;3048254;-69
2022/07/31 07:33:21;;;;;;;11.50;1.90;;;;;;;26.05;37.77;99225.20;25170;1316;3026850;-71
2022/07/31 07:35:50;;;;;;;10.80;2.20;;;;;;;26.16;37.83;99221.66;25108;1316;3067655;-73
2022/07/31 07:38:19;;;;;;;4.30;1.70;;;;;;;26.23;37.39;99217.84;25117;1316;3026623;-69
2022/07/31 07:40:49;;;;;;;8.00;1.70;;;;;;;26.40;37.15;99216.58;25112;1315;3026219;-70
2022/07/31 07:43:19;;;;;;;4.50;1.60;;;;;;;26.50;36.92;99213.84;25108;1316;3028592;-72
2022/07/31 07:45:48;;;;;;;10.00;1.60;;;;;;;26.62;36.09;99214.48;25091;1316;3026464;-70
2022/07/31 07:48:18;;;;;;;5.50;1.60;;;;;;;26.73;35.45;99216.14;25072;1316;3054971;-69
2022/07/31 07:51:05;;;;;;;3.80;1.20;;;;;;;26.84;35.14;99218.28;25134;1316;3052845;-71
2022/07/31 07:53:48;;;;;;;7.90;1.30;;;;;;;26.96;34.74;99211.38;25166;1316;3058566;-69
2022/07/31 07:56:17;;;;;;;3.00;1.50;;;;;;;27.07;34.82;99205.81;25106;1316;3026367;-69
2022/07/31 07:59:05;;;;;;;8.70;1.90;;;;;;;27.18;34.22;99197.65;25130;1315;3052611;-68
2022/07/31 08:01:53;;;;;;;4.90;1.50;;;;;;;27.25;33.54;99196.84;25111;1315;3056540;-69
2022/07/31 08:04:27;;;;;;;8.90;1.80;;;;;;;27.31;33.18;99196.56;25106;1316;3051943;-72
2022/07/31 08:06:56;;;;;;;5.30;1.50;;;;;;;27.33;33.07;99195.17;25048;1316;3026593;-70
2022/07/31 08:09:27;;;;;;;8.70;1.50;;;;;;;27.40;32.98;99195.88;25121;1316;3059191;-70
2022/07/31 08:12:05;;;;;;;4.20;1.40;;;;;;;27.53;32.78;99195.89;25119;1316;3052876;-68
2022/07/31 08:15:04;;;;;;;8.60;1.90;;;;;;;27.57;32.50;99191.95;25127;1316;3053052;-71
2022/07/31 08:17:52;;;;;;;3.40;1.50;;;;;;;27.61;32.72;99192.36;25157;1316;3053599;-69
2022/07/31 08:20:22;;;;;;;9.70;1.40;;;;;;;27.63;32.83;99191.84;25149;1316;3026709;-70
2022/07/31 08:22:52;;;;;;;2.40;1.10;;;;;;;27.68;32.52;99191.88;25117;1315;3027409;-71
2022/07/31 08:25:21;;;;;;;5.10;1.30;;;;;;;27.83;32.19;99190.58;25145;1316;3029565;-68
2022/07/31 08:27:50;;;;;;;3.00;0.90;;;;;;;27.89;32.00;99185.38;25122;1318;3027128;-70
2022/07/31 08:30:19;;;;;;;7.40;1.40;;;;;;;27.94;32.04;99188.64;25083;1316;3050932;-69
2022/07/31 08:32:50;;;;;;;7.60;1.50;;;;;;;27.98;31.74;99186.30;25141;1316;3028977;-71
2022/07/31 08:35:38;;;;;;;7.60;1.40;;;;;;;28.10;31.08;99181.66;25151;1315;3055545;-71
2022/07/31 08:38:08;;;;;;;3.60;1.40;;;;;;;28.18;30.97;99179.42;25133;1316;3028712;-74
2022/07/31 08:40:45;;;;;;;5.20;1.60;;;;;;;28.22;31.38;99178.55;25095;1316;3050830;-69
2022/07/31 08:43:14;;;;;;;5.40;1.40;;;;;;;28.31;31.46;99171.52;25136;1316;3026313;-69
2022/07/31 08:45:43;;;;;;;3.80;1.30;;;;;;;28.39;31.14;99168.23;25106;1316;3028731;-69
2022/07/31 08:48:24;;;;;;;6.50;1.40;;;;;;;28.39;30.92;99170.31;25112;1316;3050777;-68
2022/07/31 08:50:53;;;;;;;4.20;1.30;;;;;;;28.50;30.71;99164.50;25032;1315;3026909;-67
2022/07/31 08:53:43;;;;;;;3.80;1.20;;;;;;;28.69;30.27;99162.88;25156;1316;3054227;-71
2022/07/31 08:56:20;;;;;;;4.50;1.50;;;;;;;28.74;30.33;99158.64;25092;1313;3071695;-72
2022/07/31 08:58:49;;;;;;;5.50;1.30;;;;;;;28.77;30.24;99155.66;25168;1315;3027416;-70
2022/07/31 09:01:18;;;;;;;4.00;1.40;;;;;;;28.88;29.65;99152.91;25115;1316;3051442;-70
2022/07/31 09:03:47;;;;;;;7.20;1.30;;;;;;;28.91;29.27;99147.65;25120;1315;3026757;-71
2022/07/31 09:06:17;;;;;;;3.00;1.40;;;;;;;28.90;29.23;99146.98;25111;1316;3053416;-72
2022/07/31 09:08:46;;;;;;;4.90;1.40;;;;;;;28.93;29.02;99147.83;25173;1316;3029889;-71
2022/07/31 09:11:15;;;;;;;2.90;1.10;;;;;;;28.99;28.78;99142.99;25133;1316;3051988;-69
2022/07/31 09:14:05;;;;;;;2.40;1.40;;;;;;;28.95;29.33;99145.95;25154;1316;3053568;-69
2022/07/31 09:16:46;;;;;;;5.40;1.30;;;;;;;28.98;29.26;99149.25;25147;1316;3053458;-71
2022/07/31 09:19:15;;;;;;;4.80;1.30;;;;;;;29.10;29.12;99142.85;25101;1316;3028451;-71
2022/07/31 09:21:44;;;;;;;4.00;1.30;;;;;;;29.19;29.32;99143.29;25124;1316;3026883;-70
2022/07/31 09:24:24;;;;;;;15.00;1.50;;;;;;;29.24;28.97;99143.52;25078;1315;3050794;-71
2022/07/31 09:27:07;;;;;;;2.80;1.40;;;;;;;29.35;28.89;99140.24;25105;1315;3069097;-70
2022/07/31 09:29:39;;;;;;;4.30;1.50;;;;;;;29.43;28.51;99138.20;25140;1316;3049033;-71
2022/07/31 09:32:12;;;;;;;6.00;1.50;;;;;;;29.51;28.64;99129.23;25160;1316;3028508;-70
2022/07/31 09:35:11;;;;;;;6.10;1.30;;;;;;;29.50;28.39;99129.42;25134;1316;3051452;-72
2022/07/31 09:37:41;;;;;;;7.40;1.20;;;;;;;29.65;28.57;99126.13;25164;1315;3059350;-72
2022/07/31 09:40:42;;;;;;;6.70;1.40;;;;;;;29.59;27.98;99122.08;24983;1315;3050264;-71
2022/07/31 09:43:34;;;;;;;4.40;1.50;;;;;;;29.65;28.07;99121.38;25145;1316;3055966;-70
2022/07/31 09:46:04;;;;;;;4.90;1.30;;;;;;;29.78;28.08;99125.25;25127;1316;3028405;-72
2022/07/31 09:48:35;;;;;;;3.70;1.30;;;;;;;29.77;27.58;99121.23;25138;1316;3052890;-69
2022/07/31 09:51:06;;;;;;;8.10;1.30;;;;;;;29.77;27.48;99118.52;25154;1316;3026846;-69
2022/07/31 09:53:56;;;;;;;4.30;1.40;;;;;;;29.68;28.03;99118.05;25117;1316;3026532;-70
2022/07/31 09:56:51;;;;;;;5.30;1.50;;;;;;;29.81;27.72;99113.60;25085;1316;3074070;-69
2022/07/31 09:59:21;;;;;;;5.40;1.20;;;;;;;29.96;27.65;99110.16;25101;1316;3026604;-72
2022/07/31 10:01:50;;;;;;;4.10;1.30;;;;;;;30.02;27.66;99111.33;25135;1316;3026386;-69
2022/07/31 10:04:20;;;;;;;5.90;1.30;;;;;;;30.10;27.44;99110.41;25090;1316;3069808;-70
2022/07/31 10:06:50;;;;;;;9.40;1.60;;;;;;;30.20;27.15;99111.20;25147;1316;3027552;-70
2022/07/31 10:09:19;;;;;;;2.20;1.20;;;;;;;30.23;26.78;99101.14;25160;1316;3026769;-70
2022/07/31 10:11:58;;;;;;;7.00;1.70;;;;;;;30.25;27.32;99100.42;25125;1316;3054755;-72
2022/07/31 10:14:28;;;;;;;2.90;1.30;;;;;;;30.36;27.24;99102.05;25108;1316;3026542;-71
2022/07/31 10:16:59;;;;;;;4.80;1.20;;;;;;;30.42;27.28;99097.41;25142;1316;3026811;-70
2022/07/31 10:20:05;;;;;;;9.60;1.30;;;;;;;30.52;27.08;99098.03;25118;1314;3053559;-72
2022/07/31 10:23:08;;;;;;;4.50;1.30;;;;;;;30.49;26.68;99097.30;25121;1316;3053638;-70
2022/07/31 10:25:38;;;;;;;5.20;1.60;;;;;;;30.60;26.85;99100.13;25110;1316;3070249;-70
2022/07/31 10:28:07;;;;;;;3.20;1.40;;;;;;;30.70;26.47;99096.79;25078;1316;3027874;-71
2022/07/31 10:30:37;;;;;;;6.00;1.40;;;;;;;30.70;26.51;99098.78;25135;1316;3027811;-74
2022/07/31 10:33:06;;;;;;;5.30;1.30;;;;;;;30.84;26.36;99094.67;25173;1316;3027386;-69
2022/07/31 10:36:12;;;;;;;5.10;1.30;;;;;;;30.97;26.23;99091.12;25053;1316;3055125;-74
2022/07/31 10:39:09;;;;;;;5.90;1.40;;;;;;;31.06;26.10;99088.64;25127;1315;3049466;-69
2022/07/31 10:42:06;;;;;;;9.20;1.60;;;;;;;31.21;25.69;99086.73;25127;1315;3055336;-71
2022/07/31 10:44:39;;;;;;;7.80;1.90;;;;;;;31.13;25.92;99083.14;25117;1316;3051056;-64
2022/07/31 10:47:26;;;;;;;6.10;1.90;;;;;;;31.13;25.95;99081.09;25021;1316;3070941;-66
2022/07/31 10:50:21;;;;;;;2.70;1.20;;;;;;;31.25;25.92;99075.34;25528;1315;3048902;-67
2022/07/31 10:53:11;;;;;;;13.70;1.90;;;;;;;31.29;25.47;99068.59;25293;1316;3052721;-66
2022/07/31 10:56:02;;;;;;;8.70;1.60;;;;;;;31.32;25.18;99065.27;25200;1315;3053539;-68
2022/07/31 10:58:51;;;;;;;9.00;1.70;;;;;;;31.45;24.90;99065.12;25791;1315;3056302;-68
2022/07/31 11:01:48;;;;;;;6.90;1.60;;;;;;;31.61;24.47;99054.91;25068;1315;3050351;-69
2022/07/31 11:04:39;;;;;;;4.20;1.50;;;;;;;31.65;24.72;99054.25;25206;1315;3054995;-70
2022/07/31 11:07:14;;;;;;;8.90;1.50;;;;;;;31.66;24.72;99050.30;25109;1315;3055007;-65
2022/07/31 11:09:53;;;;;;;2.70;1.40;;;;;;;31.60;24.79;99044.57;25060;1316;3071169;-66
2022/07/31 11:13:06;;;;;;;7.30;1.70;;;;;;;31.51;24.54;99047.34;25052;1316;3048928;-63
2022/07/31 11:16:06;;;;;;;6.70;1.80;;;;;;;31.53;24.88;99050.41;25036;1315;3054986;-66
2022/07/31 11:19:14;;;;;;;5.30;1.70;;;;;;;31.68;24.98;99045.08;25069;1315;3055635;-65
2022/07/31 11:21:43;;;;;;;7.20;1.80;;;;;;;31.79;24.88;99043.91;25067;1315;3056301;-68
2022/07/31 11:24:17;;;;;;;8.10;1.70;;;;;;;32.00;24.73;99043.86;25094;1315;3026184;-73
2022/07/31 11:26:57;;;;;;;7.30;1.60;;;;;;;32.20;23.71;99038.98;25168;1315;3052885;-66
2022/07/31 11:29:26;;;;;;;3.20;1.30;;;;;;;32.27;23.53;99041.17;25091;1316;3059785;-68
2022/07/31 11:32:04;;;;;;;5.90;1.50;;;;;;;32.33;23.39;99041.96;24685;1315;3028182;-65
2022/07/31 11:34:52;;;;;;;7.20;1.40;;;;;;;32.40;23.38;99039.27;25123;1315;3055498;-67
2022/07/31 11:37:27;;;;;;;5.20;1.50;;;;;;;32.54;23.41;99032.74;25132;1315;3050893;-67
2022/07/31 11:39:56;;;;;;;5.50;1.80;;;;;;;32.48;23.44;99025.56;25106;1315;3068690;-70
2022/07/31 11:42:29;;;;;;;5.90;1.40;;;;;;;32.51;23.37;99024.32;25072;1316;3026797;-68
2022/07/31 11:45:03;;;;;;;5.60;2.00;;;;;;;32.38;23.17;99025.36;25134;1316;3026987;-65
2022/07/31 11:47:39;;;;;;;10.30;1.90;;;;;;;32.67;23.17;99022.17;25135;1315;3053192;-64